Time;durP1;ratioP1;P1;durP2;ratioP2;P2;SDS_P1;SDS_P2;PMS_P1;PMS_P2;Temp;Humidity;BMP_temperature;BMP_pressure;BME280_temperature;BME280_humidity;BME280_pressure;Samples;Min_cycle;Max_cycle;Signal;HPM_P1;HPM_P2
2024/03/09 00:00:23;;;;;;;10.25;8.45;;;;;;;;;;5054644;28;20035;-56
2024/03/09 00:02:50;;;;;;;9.95;8.75;;;;;;;;;;5055059;28;20518;-57
2024/03/09 00:05:16;;;;;;;11.48;8.75;;;;;;;;;;5054524;28;20348;-58
2024/03/09 00:07:42;;;;;;;13.77;9.00;;;;;;;;;;5054641;28;20039;-58
2024/03/09 00:10:11;;;;;;;13.27;8.32;;;;;;;;;;5055099;28;20051;-57
2024/03/09 00:12:37;;;;;;;10.93;8.02;;;;;;;;;;5054341;28;20021;-56
2024/03/09 00:15:03;;;;;;;12.70;8.57;;;;;;;;;;5054675;28;20040;-58
2024/03/09 00:17:30;;;;;;;11.45;8.48;;;;;;;;;;5054609;28;20455;-57
2024/03/09 00:19:59;;;;;;;15.02;9.57;;;;;;;;;;5054303;28;20039;-58
2024/03/09 00:22:27;;;;;;;12.23;8.60;;;;;;;;;;5053660;28;20066;-54
2024/03/09 00:24:54;;;;;;;12.18;7.82;;;;;;;;;;5054479;28;20112;-56
2024/03/09 00:27:24;;;;;;;13.48;8.98;;;;;;;;;;5054083;28;20029;-57
2024/03/09 00:29:54;;;;;;;11.77;8.60;;;;;;;;;;5054615;28;20108;-57
2024/03/09 00:32:20;;;;;;;10.98;8.80;;;;;;;;;;5053921;28;20509;-58
2024/03/09 00:34:46;;;;;;;13.20;9.70;;;;;;;;;;5054064;28;20358;-58
2024/03/09 00:37:13;;;;;;;10.57;8.45;;;;;;;;;;5053980;28;20029;-57
2024/03/09 00:39:39;;;;;;;12.05;9.00;;;;;;;;;;5054456;28;20021;-58
2024/03/09 00:42:08;;;;;;;12.90;9.07;;;;;;;;;;5053875;28;20052;-57
2024/03/09 00:44:35;;;;;;;12.65;9.50;;;;;;;;;;5054620;28;20040;-57
2024/03/09 00:47:01;;;;;;;13.00;9.35;;;;;;;;;;5053763;28;20033;-57
2024/03/09 00:49:30;;;;;;;11.32;7.88;;;;;;;;;;5054383;28;20116;-57
2024/03/09 00:51:56;;;;;;;13.95;9.32;;;;;;;;;;5053823;28;20032;-58
2024/03/09 00:54:22;;;;;;;10.95;8.15;;;;;;;;;;5054226;28;20036;-56
2024/03/09 00:56:50;;;;;;;10.65;8.27;;;;;;;;;;5053629;28;20097;-57
2024/03/09 00:59:16;;;;;;;10.40;7.88;;;;;;;;;;5053533;28;20451;-58
2024/03/09 01:01:42;;;;;;;13.07;9.30;;;;;;;;;;5053817;28;20032;-57
2024/03/09 01:04:09;;;;;;;12.20;9.02;;;;;;;;;;5053317;28;20033;-58
2024/03/09 01:06:37;;;;;;;13.88;10.02;;;;;;;;;;5053567;28;20025;-57
2024/03/09 01:09:03;;;;;;;13.45;9.45;;;;;;;;;;5053572;28;20035;-57
2024/03/09 01:11:29;;;;;;;12.88;9.55;;;;;;;;;;5053551;28;20047;-56
2024/03/09 01:13:56;;;;;;;16.73;9.85;;;;;;;;;;5054304;28;20033;-55
2024/03/09 01:16:22;;;;;;;11.70;8.70;;;;;;;;;;5053511;28;20037;-56
2024/03/09 01:18:48;;;;;;;10.27;7.93;;;;;;;;;;5053726;28;20098;-57
2024/03/09 01:21:15;;;;;;;13.23;8.57;;;;;;;;;;5054011;28;20025;-57
2024/03/09 01:23:41;;;;;;;15.50;9.30;;;;;;;;;;5054172;28;20029;-56
2024/03/09 01:26:09;;;;;;;12.25;8.95;;;;;;;;;;5053910;28;20032;-56
2024/03/09 01:28:36;;;;;;;12.93;10.05;;;;;;;;;;5053856;28;20114;-57
2024/03/09 01:31:02;;;;;;;12.48;8.88;;;;;;;;;;5053202;28;20029;-55
2024/03/09 01:33:28;;;;;;;12.27;8.95;;;;;;;;;;5055751;28;20060;-56
2024/03/09 01:35:54;;;;;;;11.90;8.55;;;;;;;;;;5058121;28;20036;-58
2024/03/09 01:38:22;;;;;;;11.75;9.88;;;;;;;;;;5057433;28;20060;-55
2024/03/09 01:40:48;;;;;;;12.55;8.80;;;;;;;;;;5057284;28;20028;-57
2024/03/09 01:43:16;;;;;;;12.68;10.13;;;;;;;;;;5057566;28;20052;-56
2024/03/09 01:45:45;;;;;;;13.73;8.68;;;;;;;;;;5057209;28;20025;-56
2024/03/09 01:48:13;;;;;;;11.43;8.60;;;;;;;;;;5057625;28;20140;-57
2024/03/09 01:50:39;;;;;;;13.38;9.38;;;;;;;;;;5057861;28;20029;-57
2024/03/09 01:53:07;;;;;;;13.52;9.52;;;;;;;;;;5056782;28;20478;-56
2024/03/09 01:55:33;;;;;;;12.15;8.88;;;;;;;;;;5056993;28;20040;-57
2024/03/09 01:57:59;;;;;;;12.52;9.45;;;;;;;;;;5055533;28;20123;-57
2024/03/09 02:00:26;;;;;;;15.00;10.30;;;;;;;;;;5056877;28;20055;-57
2024/03/09 02:02:54;;;;;;;13.70;9.27;;;;;;;;;;5056926;28;20058;-57
2024/03/09 02:05:20;;;;;;;10.85;8.38;;;;;;;;;;5057289;28;20040;-57
2024/03/09 02:07:47;;;;;;;15.50;10.10;;;;;;;;;;5056748;28;20375;-57
2024/03/09 02:10:13;;;;;;;12.82;8.45;;;;;;;;;;5057092;28;20463;-56
2024/03/09 02:12:39;;;;;;;14.43;10.65;;;;;;;;;;5056679;28;20025;-57
2024/03/09 02:15:05;;;;;;;11.65;9.00;;;;;;;;;;5057156;28;20031;-57
2024/03/09 02:17:33;;;;;;;10.98;8.40;;;;;;;;;;5056888;28;20433;-57
2024/03/09 02:19:59;;;;;;;14.63;11.20;;;;;;;;;;5057160;28;20033;-57
2024/03/09 02:22:27;;;;;;;16.17;9.00;;;;;;;;;;5056224;28;20032;-56
2024/03/09 02:24:56;;;;;;;11.15;9.32;;;;;;;;;;5057023;28;20090;-57
2024/03/09 02:27:25;;;;;;;11.13;9.38;;;;;;;;;;5056317;28;20037;-55
2024/03/09 02:29:52;;;;;;;13.48;10.73;;;;;;;;;;5057126;28;20115;-57
2024/03/09 02:32:18;;;;;;;13.88;9.43;;;;;;;;;;5056548;28;20025;-56
2024/03/09 02:34:44;;;;;;;11.30;9.23;;;;;;;;;;5056989;28;20033;-57
2024/03/09 02:37:10;;;;;;;14.13;10.40;;;;;;;;;;5056229;28;20021;-55
2024/03/09 02:39:36;;;;;;;15.98;9.20;;;;;;;;;;5056314;28;20029;-56
2024/03/09 02:42:04;;;;;;;15.52;9.82;;;;;;;;;;5055962;28;20021;-56
2024/03/09 02:44:31;;;;;;;15.10;9.85;;;;;;;;;;5054713;28;20033;-57
2024/03/09 02:46:57;;;;;;;12.80;9.55;;;;;;;;;;5056129;28;20056;-57
2024/03/09 02:49:26;;;;;;;13.73;9.18;;;;;;;;;;5055685;28;20513;-57
2024/03/09 02:51:53;;;;;;;13.05;10.27;;;;;;;;;;5055563;28;20033;-56
2024/03/09 02:54:19;;;;;;;20.60;10.93;;;;;;;;;;5055637;28;20068;-56
2024/03/09 02:56:46;;;;;;;13.43;10.02;;;;;;;;;;5055912;28;20056;-57
2024/03/09 02:59:12;;;;;;;14.80;10.68;;;;;;;;;;5055853;28;20413;-57
2024/03/09 03:01:38;;;;;;;16.33;11.90;;;;;;;;;;5055763;28;20027;-57
2024/03/09 03:04:04;;;;;;;18.25;11.70;;;;;;;;;;5056352;28;20025;-57
2024/03/09 03:06:32;;;;;;;15.27;11.27;;;;;;;;;;5055590;28;20025;-57
2024/03/09 03:09:11;;;;;;;13.90;11.52;;;;;;;;;;5055965;28;20063;-55
2024/03/09 03:11:40;;;;;;;14.63;11.55;;;;;;;;;;5056017;28;20120;-57
2024/03/09 03:14:06;;;;;;;17.08;11.93;;;;;;;;;;5056080;28;20032;-55
2024/03/09 03:16:35;;;;;;;13.98;10.43;;;;;;;;;;5055489;28;20017;-57
2024/03/09 03:19:03;;;;;;;15.45;10.63;;;;;;;;;;5055778;28;20162;-57
2024/03/09 03:21:29;;;;;;;12.98;10.57;;;;;;;;;;5055449;28;20036;-56
2024/03/09 03:23:55;;;;;;;18.42;12.07;;;;;;;;;;5055398;28;20032;-57
2024/03/09 03:26:21;;;;;;;15.57;10.85;;;;;;;;;;5055318;28;20028;-57
2024/03/09 03:28:48;;;;;;;14.68;12.02;;;;;;;;;;5055769;28;20021;-56
2024/03/09 03:31:21;;;;;;;15.35;11.02;;;;;;;;;;5055173;28;20086;-57
2024/03/09 03:33:49;;;;;;;15.98;13.02;;;;;;;;;;5055786;28;20116;-56
2024/03/09 03:36:18;;;;;;;15.35;11.40;;;;;;;;;;5055095;28;20174;-58
2024/03/09 03:38:44;;;;;;;17.25;14.05;;;;;;;;;;5055649;28;20131;-57
2024/03/09 03:41:10;;;;;;;18.13;12.60;;;;;;;;;;5055028;28;20448;-57
2024/03/09 03:43:37;;;;;;;18.23;11.63;;;;;;;;;;5055036;28;20473;-56
2024/03/09 03:46:04;;;;;;;18.67;10.95;;;;;;;;;;5055470;28;20025;-54
2024/03/09 03:48:30;;;;;;;13.18;10.15;;;;;;;;;;5055409;28;20029;-57
2024/03/09 03:50:56;;;;;;;12.95;10.05;;;;;;;;;;5055362;28;20417;-57
2024/03/09 03:53:22;;;;;;;17.13;11.63;;;;;;;;;;5055562;28;20029;-55
2024/03/09 03:55:48;;;;;;;14.63;11.55;;;;;;;;;;5054230;28;20033;-56
2024/03/09 03:58:17;;;;;;;12.25;10.55;;;;;;;;;;5055131;28;20029;-57
2024/03/09 04:00:43;;;;;;;15.32;10.88;;;;;;;;;;5055465;28;20032;-57
2024/03/09 04:03:10;;;;;;;14.77;11.50;;;;;;;;;;5054628;28;20013;-57
2024/03/09 04:05:38;;;;;;;14.75;11.18;;;;;;;;;;5055091;28;20033;-56
2024/03/09 04:08:06;;;;;;;17.15;11.40;;;;;;;;;;5054492;28;20086;-56
2024/03/09 04:10:32;;;;;;;13.63;10.57;;;;;;;;;;5054507;28;20493;-57
2024/03/09 04:12:59;;;;;;;13.57;10.52;;;;;;;;;;5054385;28;20029;-57
2024/03/09 04:15:26;;;;;;;13.57;10.10;;;;;;;;;;5054428;28;20025;-57
2024/03/09 04:17:52;;;;;;;14.75;11.82;;;;;;;;;;5054861;28;20063;-58
2024/03/09 04:20:18;;;;;;;13.95;11.95;;;;;;;;;;5054399;28;20044;-57
2024/03/09 04:22:45;;;;;;;15.18;12.13;;;;;;;;;;5054370;28;20025;-56
2024/03/09 04:25:12;;;;;;;17.85;11.88;;;;;;;;;;5053907;28;20033;-58
2024/03/09 04:27:39;;;;;;;14.15;10.60;;;;;;;;;;5054116;28;20043;-57
2024/03/09 04:30:09;;;;;;;18.63;12.68;;;;;;;;;;5054321;28;20111;-56
2024/03/09 04:32:34;;;;;;;15.65;12.48;;;;;;;;;;5054356;28;20029;-55
2024/03/09 04:35:02;;;;;;;16.75;10.60;;;;;;;;;;5054122;28;20017;-55
2024/03/09 04:37:28;;;;;;;16.35;11.73;;;;;;;;;;5054467;28;20060;-57
2024/03/09 04:39:55;;;;;;;19.58;12.70;;;;;;;;;;5054533;28;20032;-57
2024/03/09 04:42:24;;;;;;;14.15;11.23;;;;;;;;;;5053950;28;20423;-56
2024/03/09 04:44:51;;;;;;;17.23;11.55;;;;;;;;;;5053889;28;20075;-57
2024/03/09 04:47:17;;;;;;;15.82;12.07;;;;;;;;;;5054261;28;20063;-56
2024/03/09 04:49:45;;;;;;;13.68;10.63;;;;;;;;;;5054487;28;20025;-57
2024/03/09 04:52:12;;;;;;;16.17;10.50;;;;;;;;;;5054067;28;20029;-56
2024/03/09 04:54:39;;;;;;;14.27;11.35;;;;;;;;;;5054743;28;20123;-55
2024/03/09 04:57:05;;;;;;;13.80;10.35;;;;;;;;;;5053323;28;20483;-57
2024/03/09 04:59:31;;;;;;;15.27;11.77;;;;;;;;;;5053745;28;20021;-57
2024/03/09 05:01:57;;;;;;;16.50;11.45;;;;;;;;;;5053969;28;20031;-57
2024/03/09 05:04:23;;;;;;;14.00;10.82;;;;;;;;;;5054155;28;20028;-57
2024/03/09 05:06:49;;;;;;;12.65;10.40;;;;;;;;;;5053354;28;20029;-57
2024/03/09 05:09:16;;;;;;;16.20;11.35;;;;;;;;;;5053361;28;20035;-57
2024/03/09 05:11:42;;;;;;;15.50;11.55;;;;;;;;;;5053986;28;20033;-56
2024/03/09 05:14:08;;;;;;;15.25;11.27;;;;;;;;;;5053224;28;20052;-57
2024/03/09 05:16:34;;;;;;;13.45;10.48;;;;;;;;;;5053629;28;20025;-57
2024/03/09 05:19:00;;;;;;;15.32;10.38;;;;;;;;;;5054066;28;20065;-57
2024/03/09 05:21:28;;;;;;;13.25;9.23;;;;;;;;;;5053553;28;20029;-57
2024/03/09 05:23:54;;;;;;;14.98;10.07;;;;;;;;;;5053403;28;20367;-57
2024/03/09 05:26:22;;;;;;;13.27;10.45;;;;;;;;;;5054006;28;20025;-57
2024/03/09 05:28:48;;;;;;;12.52;10.30;;;;;;;;;;5053894;28;20033;-57
2024/03/09 05:31:26;;;;;;;16.20;10.82;;;;;;;;;;5053210;28;20523;-57
2024/03/09 05:33:53;;;;;;;15.40;10.80;;;;;;;;;;5053345;28;20387;-57
2024/03/09 05:36:19;;;;;;;12.60;10.35;;;;;;;;;;5053862;28;20033;-55
2024/03/09 05:38:48;;;;;;;15.85;10.25;;;;;;;;;;5053895;28;20037;-57
2024/03/09 05:41:15;;;;;;;14.90;10.93;;;;;;;;;;5053998;28;20033;-53
2024/03/09 05:43:42;;;;;;;13.10;9.13;;;;;;;;;;5052888;28;20025;-55
2024/03/09 05:46:08;;;;;;;12.75;9.93;;;;;;;;;;5053170;28;20514;-55
2024/03/09 05:48:34;;;;;;;17.52;9.63;;;;;;;;;;5053656;28;20025;-56
2024/03/09 05:51:00;;;;;;;13.25;9.73;;;;;;;;;;5053215;28;20026;-57
2024/03/09 05:53:26;;;;;;;15.70;9.35;;;;;;;;;;5053169;28;20069;-55
2024/03/09 05:55:52;;;;;;;11.90;10.43;;;;;;;;;;5053370;28;20021;-57
2024/03/09 05:58:22;;;;;;;10.93;9.63;;;;;;;;;;5053340;28;20025;-57
2024/03/09 06:00:48;;;;;;;14.60;10.73;;;;;;;;;;5053096;28;20382;-57
2024/03/09 06:03:15;;;;;;;14.18;11.15;;;;;;;;;;5053214;28;20029;-54
2024/03/09 06:05:42;;;;;;;14.68;9.82;;;;;;;;;;5053145;28;20078;-57
2024/03/09 06:08:08;;;;;;;14.02;10.52;;;;;;;;;;5053397;28;20029;-57
2024/03/09 06:10:34;;;;;;;13.77;10.20;;;;;;;;;;5053057;28;20035;-52
2024/03/09 06:13:00;;;;;;;13.63;10.35;;;;;;;;;;5053072;28;20103;-56
2024/03/09 06:15:27;;;;;;;17.60;11.23;;;;;;;;;;5052995;28;20090;-56
2024/03/09 06:17:56;;;;;;;14.23;9.82;;;;;;;;;;5053039;28;20379;-55
2024/03/09 06:20:26;;;;;;;14.40;11.07;;;;;;;;;;5054760;28;20033;-57
2024/03/09 06:22:53;;;;;;;14.40;9.93;;;;;;;;;;5056774;28;20115;-57
2024/03/09 06:25:22;;;;;;;13.80;10.25;;;;;;;;;;5056456;28;20752;-57
2024/03/09 06:27:52;;;;;;;15.07;9.65;;;;;;;;;;5056132;28;20047;-57
2024/03/09 06:30:19;;;;;;;16.42;11.18;;;;;;;;;;5056827;28;20037;-57
2024/03/09 06:32:47;;;;;;;15.48;11.07;;;;;;;;;;5056704;28;20032;-57
2024/03/09 06:35:19;;;;;;;14.07;11.98;;;;;;;;;;5056417;28;20579;-57
2024/03/09 06:37:58;;;;;;;16.08;12.68;;;;;;;;;;5056810;28;20033;-56
2024/03/09 06:40:25;;;;;;;16.27;11.20;;;;;;;;;;5057129;28;20025;-57
2024/03/09 06:42:52;;;;;;;17.35;11.10;;;;;;;;;;5056168;28;20028;-57
2024/03/09 06:45:18;;;;;;;17.17;10.73;;;;;;;;;;5055978;28;20033;-55
2024/03/09 06:47:45;;;;;;;16.45;11.95;;;;;;;;;;5056356;28;20159;-56
2024/03/09 06:50:13;;;;;;;14.07;11.45;;;;;;;;;;5056386;28;20036;-55
2024/03/09 06:52:39;;;;;;;14.40;11.55;;;;;;;;;;5055803;28;20021;-54
2024/03/09 06:55:05;;;;;;;16.40;11.20;;;;;;;;;;5054914;28;20025;-58
2024/03/09 06:57:35;;;;;;;15.10;11.82;;;;;;;;;;5055739;28;20052;-58
2024/03/09 07:00:01;;;;;;;17.60;12.00;;;;;;;;;;5055705;28;20028;-55
2024/03/09 07:02:27;;;;;;;12.90;10.43;;;;;;;;;;5055601;28;20094;-57
2024/03/09 07:04:55;;;;;;;13.07;9.55;;;;;;;;;;5055662;28;20029;-57
2024/03/09 07:07:21;;;;;;;14.20;9.98;;;;;;;;;;5055596;28;20037;-55
2024/03/09 07:09:50;;;;;;;16.50;11.05;;;;;;;;;;5056258;28;20044;-56
2024/03/09 07:12:17;;;;;;;16.83;10.48;;;;;;;;;;5055667;28;20063;-57
2024/03/09 07:14:45;;;;;;;15.25;11.85;;;;;;;;;;5055818;28;20112;-58
2024/03/09 07:17:16;;;;;;;16.23;11.85;;;;;;;;;;5055983;28;20013;-58
2024/03/09 07:19:42;;;;;;;17.38;9.88;;;;;;;;;;5056256;28;20028;-57
2024/03/09 07:22:08;;;;;;;13.90;9.90;;;;;;;;;;5054884;28;20017;-54
2024/03/09 07:24:43;;;;;;;14.85;11.93;;;;;;;;;;5055512;28;20024;-55
2024/03/09 07:27:11;;;;;;;11.90;10.30;;;;;;;;;;5054487;28;20473;-56
2024/03/09 07:29:38;;;;;;;17.08;11.20;;;;;;;;;;5055898;28;20041;-57
2024/03/09 07:32:17;;;;;;;14.93;10.80;;;;;;;;;;5054748;28;20029;-55
2024/03/09 07:34:43;;;;;;;16.40;10.88;;;;;;;;;;5055801;28;20098;-54
2024/03/09 07:37:09;;;;;;;15.45;10.25;;;;;;;;;;5055076;28;20100;-56
2024/03/09 07:39:37;;;;;;;17.17;11.52;;;;;;;;;;5055629;28;20029;-57
2024/03/09 07:42:03;;;;;;;15.88;11.75;;;;;;;;;;5055524;28;20059;-57
2024/03/09 07:44:31;;;;;;;15.15;11.30;;;;;;;;;;5055062;28;20075;-56
2024/03/09 07:46:57;;;;;;;17.77;12.32;;;;;;;;;;5055020;28;20029;-57
2024/03/09 07:49:23;;;;;;;15.40;11.55;;;;;;;;;;5055446;28;20037;-57
2024/03/09 07:51:49;;;;;;;17.02;9.88;;;;;;;;;;5055518;28;20029;-58
2024/03/09 07:54:14;;;;;;;17.17;11.38;;;;;;;;;;5054638;28;20028;-57
2024/03/09 07:56:40;;;;;;;13.80;12.13;;;;;;;;;;5054705;28;20049;-57
2024/03/09 07:59:07;;;;;;;15.52;11.32;;;;;;;;;;5054542;28;20037;-58
2024/03/09 08:01:33;;;;;;;13.23;10.57;;;;;;;;;;5054662;28;20112;-58
2024/03/09 08:03:59;;;;;;;17.10;12.73;;;;;;;;;;5055181;28;20028;-57
2024/03/09 08:06:25;;;;;;;18.70;12.88;;;;;;;;;;5054640;28;20021;-58
2024/03/09 08:08:52;;;;;;;16.50;11.07;;;;;;;;;;5055342;28;20028;-56
2024/03/09 08:11:22;;;;;;;13.18;10.60;;;;;;;;;;5055050;28;20040;-57
2024/03/09 08:13:48;;;;;;;15.25;10.88;;;;;;;;;;5054513;28;20463;-58
2024/03/09 08:16:14;;;;;;;12.73;10.43;;;;;;;;;;5054155;28;20071;-56
2024/03/09 08:18:40;;;;;;;15.82;12.48;;;;;;;;;;5054923;28;20371;-58
2024/03/09 08:21:07;;;;;;;14.73;10.90;;;;;;;;;;5054344;28;20017;-57
2024/03/09 08:23:34;;;;;;;14.27;10.68;;;;;;;;;;5054080;28;20035;-58
2024/03/09 08:26:06;;;;;;;13.43;9.55;;;;;;;;;;5053874;28;20408;-56
2024/03/09 08:28:33;;;;;;;14.65;11.02;;;;;;;;;;5054075;28;20113;-56
2024/03/09 08:30:59;;;;;;;13.32;10.48;;;;;;;;;;5053981;28;20119;-55
2024/03/09 08:33:25;;;;;;;14.02;11.25;;;;;;;;;;5054645;28;20028;-56
2024/03/09 08:35:58;;;;;;;15.48;11.02;;;;;;;;;;5054433;28;20082;-56
2024/03/09 08:38:24;;;;;;;15.15;11.02;;;;;;;;;;5054201;28;20364;-57
2024/03/09 08:40:52;;;;;;;14.05;10.60;;;;;;;;;;5053775;28;20036;-57
2024/03/09 08:43:18;;;;;;;13.98;11.52;;;;;;;;;;5053059;28;20424;-57
2024/03/09 08:45:47;;;;;;;11.45;10.05;;;;;;;;;;5053739;28;20056;-57
2024/03/09 08:48:13;;;;;;;15.82;11.50;;;;;;;;;;5054392;28;20029;-57
2024/03/09 08:50:40;;;;;;;13.23;10.07;;;;;;;;;;5053589;28;20020;-58
2024/03/09 08:53:10;;;;;;;13.15;10.73;;;;;;;;;;5054193;28;20020;-56
2024/03/09 08:55:36;;;;;;;13.00;10.25;;;;;;;;;;5054022;28;20410;-57
2024/03/09 08:58:02;;;;;;;16.25;10.90;;;;;;;;;;5053789;28;20025;-56
2024/03/09 09:00:28;;;;;;;11.90;10.55;;;;;;;;;;5053905;28;20462;-57
2024/03/09 09:02:56;;;;;;;12.85;9.68;;;;;;;;;;5053692;28;20115;-57
2024/03/09 09:05:22;;;;;;;14.93;10.32;;;;;;;;;;5053451;28;20079;-57
2024/03/09 09:07:48;;;;;;;12.15;10.82;;;;;;;;;;5053256;28;20037;-56
2024/03/09 09:10:15;;;;;;;14.00;10.55;;;;;;;;;;5053937;28;20055;-56
2024/03/09 09:12:41;;;;;;;12.18;10.43;;;;;;;;;;5053412;28;20029;-57
2024/03/09 09:15:10;;;;;;;13.00;9.82;;;;;;;;;;5053581;28;20033;-57
2024/03/09 09:17:36;;;;;;;12.43;9.15;;;;;;;;;;5053350;28;20159;-57
2024/03/09 09:20:04;;;;;;;11.55;9.52;;;;;;;;;;5053752;28;20029;-57
2024/03/09 09:22:30;;;;;;;13.57;10.38;;;;;;;;;;5053401;28;20029;-56
2024/03/09 09:24:56;;;;;;;11.05;8.57;;;;;;;;;;5053302;28;20029;-57
2024/03/09 09:27:25;;;;;;;12.30;8.90;;;;;;;;;;5053333;28;20024;-57
2024/03/09 09:29:51;;;;;;;12.75;8.07;;;;;;;;;;5053780;28;20079;-58
2024/03/09 09:32:17;;;;;;;13.20;9.52;;;;;;;;;;5053821;28;20021;-57
2024/03/09 09:34:44;;;;;;;11.13;8.95;;;;;;;;;;5053356;28;20028;-58
2024/03/09 09:37:12;;;;;;;10.43;8.65;;;;;;;;;;5053415;28;20029;-57
2024/03/09 09:39:38;;;;;;;11.75;9.45;;;;;;;;;;5053393;28;20036;-57
2024/03/09 09:42:04;;;;;;;12.95;8.85;;;;;;;;;;5054198;28;20021;-57
2024/03/09 09:44:30;;;;;;;12.77;9.40;;;;;;;;;;5053334;28;20033;-57
2024/03/09 09:46:56;;;;;;;13.40;9.07;;;;;;;;;;5053562;28;20025;-59
2024/03/09 09:49:23;;;;;;;13.70;9.55;;;;;;;;;;5054043;28;20371;-57
2024/03/09 09:51:51;;;;;;;13.60;8.73;;;;;;;;;;5053333;28;20033;-57
2024/03/09 09:54:18;;;;;;;10.07;9.02;;;;;;;;;;5055915;28;20037;-57
2024/03/09 09:56:46;;;;;;;12.98;9.82;;;;;;;;;;5057164;28;20426;-57
2024/03/09 09:59:12;;;;;;;10.32;8.52;;;;;;;;;;5057018;28;20033;-57
2024/03/09 10:01:38;;;;;;;14.38;9.50;;;;;;;;;;5057211;28;20033;-59
2024/03/09 10:04:04;;;;;;;10.63;7.88;;;;;;;;;;5057542;28;20100;-57
2024/03/09 10:06:30;;;;;;;11.85;8.57;;;;;;;;;;5057037;28;20033;-58
2024/03/09 10:08:57;;;;;;;9.57;8.15;;;;;;;;;;5057463;28;20044;-59
2024/03/09 10:11:25;;;;;;;8.88;7.53;;;;;;;;;;5056775;28;20032;-57
2024/03/09 10:13:57;;;;;;;8.77;7.75;;;;;;;;;;5056786;28;20027;-57
2024/03/09 10:16:30;;;;;;;11.27;8.82;;;;;;;;;;5057447;28;20371;-58
2024/03/09 10:18:57;;;;;;;13.55;8.98;;;;;;;;;;5057358;28;20398;-58
2024/03/09 10:21:27;;;;;;;10.10;7.97;;;;;;;;;;5057132;28;20033;-58
2024/03/09 10:24:02;;;;;;;11.20;8.50;;;;;;;;;;5057252;28;20074;-57
2024/03/09 10:26:29;;;;;;;11.65;8.27;;;;;;;;;;5057123;28;20064;-57
2024/03/09 10:28:58;;;;;;;11.18;8.93;;;;;;;;;;5057368;28;20060;-58
2024/03/09 10:31:24;;;;;;;11.30;7.90;;;;;;;;;;5056555;28;20029;-58
2024/03/09 10:33:57;;;;;;;9.63;7.72;;;;;;;;;;5057209;28;20029;-58
2024/03/09 10:36:24;;;;;;;7.43;6.68;;;;;;;;;;5056086;28;20356;-58
2024/03/09 10:38:57;;;;;;;9.13;6.75;;;;;;;;;;5056356;28;20044;-59
2024/03/09 10:41:24;;;;;;;7.95;6.63;;;;;;;;;;5056763;28;20040;-58
2024/03/09 10:43:52;;;;;;;9.70;7.03;;;;;;;;;;5056131;28;20029;-57
2024/03/09 10:46:20;;;;;;;8.63;6.05;;;;;;;;;;5056255;28;20219;-58
2024/03/09 10:48:56;;;;;;;9.88;5.78;;;;;;;;;;5056401;28;20040;-58
2024/03/09 10:51:41;;;;;;;8.40;6.40;;;;;;;;;;5056690;28;20029;-58
2024/03/09 10:54:25;;;;;;;8.68;6.60;;;;;;;;;;5056015;28;20238;-58
2024/03/09 10:56:53;;;;;;;8.55;5.95;;;;;;;;;;5056648;28;20059;-58
2024/03/09 10:59:23;;;;;;;8.32;6.43;;;;;;;;;;5056156;28;20032;-58
2024/03/09 11:01:54;;;;;;;8.23;5.85;;;;;;;;;;5055886;28;20032;-58
2024/03/09 11:04:20;;;;;;;6.85;4.65;;;;;;;;;;5056569;28;20367;-57
2024/03/09 11:06:47;;;;;;;7.10;4.95;;;;;;;;;;5054808;28;20036;-59
2024/03/09 11:09:15;;;;;;;6.05;4.43;;;;;;;;;;5055645;28;20044;-59
2024/03/09 11:11:41;;;;;;;5.68;4.15;;;;;;;;;;5055561;28;20477;-59
2024/03/09 11:14:08;;;;;;;5.45;4.05;;;;;;;;;;5056048;28;20029;-59
2024/03/09 11:16:34;;;;;;;7.30;4.60;;;;;;;;;;5055578;28;20033;-59
2024/03/09 11:19:00;;;;;;;7.13;4.85;;;;;;;;;;5055857;28;20032;-58
2024/03/09 11:21:29;;;;;;;5.15;4.60;;;;;;;;;;5055316;28;20094;-58
2024/03/09 11:23:59;;;;;;;4.93;3.90;;;;;;;;;;5055457;28;20374;-61
2024/03/09 11:26:26;;;;;;;7.22;4.68;;;;;;;;;;5055496;28;20447;-58
2024/03/09 11:28:56;;;;;;;6.05;5.03;;;;;;;;;;5055929;28;20122;-58
2024/03/09 11:31:28;;;;;;;6.20;4.55;;;;;;;;;;5055259;28;20505;-58
2024/03/09 11:34:07;;;;;;;7.20;4.47;;;;;;;;;;5055748;28;20070;-58
2024/03/09 11:36:43;;;;;;;6.68;4.38;;;;;;;;;;5055272;28;20116;-58
2024/03/09 11:39:09;;;;;;;4.78;3.67;;;;;;;;;;5055799;28;20027;-57
2024/03/09 11:41:38;;;;;;;3.72;2.88;;;;;;;;;;5055076;28;20052;-58
2024/03/09 11:44:04;;;;;;;5.65;4.18;;;;;;;;;;5054979;28;20032;-58
2024/03/09 11:46:30;;;;;;;4.97;3.60;;;;;;;;;;5055602;28;20021;-58
2024/03/09 11:48:57;;;;;;;4.35;3.55;;;;;;;;;;5055259;28;20470;-58
2024/03/09 11:51:23;;;;;;;4.38;3.10;;;;;;;;;;5055010;28;20033;-58
2024/03/09 11:53:49;;;;;;;3.42;2.28;;;;;;;;;;5055497;28;20052;-58
2024/03/09 11:56:15;;;;;;;4.22;2.80;;;;;;;;;;5054749;28;20052;-57
2024/03/09 11:58:42;;;;;;;4.80;3.05;;;;;;;;;;5055423;28;20067;-58
2024/03/09 12:01:08;;;;;;;5.13;3.13;;;;;;;;;;5054682;28;20025;-58
2024/03/09 12:03:34;;;;;;;4.00;2.63;;;;;;;;;;5055122;28;20151;-58
2024/03/09 12:06:00;;;;;;;4.20;2.95;;;;;;;;;;5054961;28;20094;-58
2024/03/09 12:08:26;;;;;;;6.13;3.70;;;;;;;;;;5055179;28;20033;-58
2024/03/09 12:10:57;;;;;;;5.18;3.17;;;;;;;;;;5054843;28;20036;-58
2024/03/09 12:13:24;;;;;;;;;;;;;;;;;;5055574;28;20036;-58
2024/03/09 12:15:49;;;;;;;6.10;3.38;;;;;;;;;;5054604;28;20370;-59
2024/03/09 12:18:16;;;;;;;7.35;4.35;;;;;;;;;;5053625;28;20029;-59
2024/03/09 12:20:43;;;;;;;6.65;4.38;;;;;;;;;;5054328;28;20033;-58
2024/03/09 12:23:10;;;;;;;7.18;4.88;;;;;;;;;;5054944;28;20427;-60
2024/03/09 12:25:36;;;;;;;5.75;4.65;;;;;;;;;;5054217;28;20104;-59
2024/03/09 12:28:05;;;;;;;6.90;4.90;;;;;;;;;;5054965;28;20025;-59
2024/03/09 12:30:31;;;;;;;5.68;4.68;;;;;;;;;;5054377;28;20076;-57
2024/03/09 12:32:57;;;;;;;7.95;5.05;;;;;;;;;;5053571;28;20116;-59
2024/03/09 12:35:23;;;;;;;8.07;5.38;;;;;;;;;;5054070;28;20025;-58
2024/03/09 12:37:49;;;;;;;6.25;4.07;;;;;;;;;;5054124;28;20025;-59
2024/03/09 12:40:18;;;;;;;5.50;4.47;;;;;;;;;;5054536;28;20545;-59
2024/03/09 12:42:44;;;;;;;8.90;5.03;;;;;;;;;;5054255;28;20029;-58
2024/03/09 12:45:20;;;;;;;5.88;4.28;;;;;;;;;;5053977;28;20115;-59
2024/03/09 12:47:47;;;;;;;7.68;5.03;;;;;;;;;;5053238;28;20044;-59
2024/03/09 12:50:16;;;;;;;7.22;4.95;;;;;;;;;;5053638;28;20029;-58
2024/03/09 12:52:44;;;;;;;6.75;4.68;;;;;;;;;;5053355;28;20029;-59
2024/03/09 12:55:11;;;;;;;6.47;4.82;;;;;;;;;;5053168;28;20032;-59
2024/03/09 12:57:37;;;;;;;6.72;5.32;;;;;;;;;;5052962;28;20471;-59
2024/03/09 13:00:05;;;;;;;6.55;4.60;;;;;;;;;;5053300;28;20027;-59
2024/03/09 13:02:37;;;;;;;5.57;4.15;;;;;;;;;;5053493;28;20039;-59
2024/03/09 13:05:04;;;;;;;5.68;4.15;;;;;;;;;;5053894;28;20427;-59
2024/03/09 13:07:39;;;;;;;6.75;4.93;;;;;;;;;;5053183;28;20440;-59
2024/03/09 13:10:05;;;;;;;5.55;3.70;;;;;;;;;;5053287;28;20029;-59
2024/03/09 13:12:31;;;;;;;6.85;5.03;;;;;;;;;;5052934;28;20108;-59
2024/03/09 13:14:57;;;;;;;5.18;4.13;;;;;;;;;;5053223;28;20099;-59
2024/03/09 13:17:23;;;;;;;5.55;4.15;;;;;;;;;;5053894;28;20025;-58
2024/03/09 13:19:49;;;;;;;5.57;4.30;;;;;;;;;;5054123;28;20116;-58
2024/03/09 13:22:15;;;;;;;7.28;3.80;;;;;;;;;;5053359;28;20036;-58
2024/03/09 13:24:42;;;;;;;6.78;4.68;;;;;;;;;;5052753;28;20047;-58
2024/03/09 13:27:07;;;;;;;5.38;3.47;;;;;;;;;;5053047;28;20383;-58
2024/03/09 13:29:35;;;;;;;4.68;3.00;;;;;;;;;;5055669;28;20032;-58
2024/03/09 13:32:02;;;;;;;6.18;3.55;;;;;;;;;;5057300;28;20036;-58
2024/03/09 13:34:29;;;;;;;4.40;2.95;;;;;;;;;;5057077;28;20021;-58
2024/03/09 13:36:55;;;;;;;4.93;2.83;;;;;;;;;;5056773;28;20017;-58
2024/03/09 13:39:27;;;;;;;4.85;3.30;;;;;;;;;;5057285;28;20024;-59
2024/03/09 13:41:53;;;;;;;4.65;3.22;;;;;;;;;;5057249;28;20025;-58
2024/03/09 13:44:23;;;;;;;4.80;3.42;;;;;;;;;;5057790;28;20028;-58
2024/03/09 13:46:50;;;;;;;5.30;4.00;;;;;;;;;;5057640;28;20024;-58
2024/03/09 13:49:19;;;;;;;4.88;3.60;;;;;;;;;;5057614;28;20182;-58
2024/03/09 13:51:45;;;;;;;7.78;3.53;;;;;;;;;;5057119;28;20120;-58
2024/03/09 13:54:17;;;;;;;5.78;3.65;;;;;;;;;;5057128;28;20028;-59
2024/03/09 13:56:52;;;;;;;5.50;3.60;;;;;;;;;;5057141;28;20083;-57
2024/03/09 13:59:21;;;;;;;5.60;3.88;;;;;;;;;;5057569;28;20051;-57
2024/03/09 14:01:49;;;;;;;6.57;3.22;;;;;;;;;;5056454;28;20391;-57
2024/03/09 14:04:17;;;;;;;4.45;2.63;;;;;;;;;;5057316;28;20037;-58
2024/03/09 14:06:44;;;;;;;6.05;3.15;;;;;;;;;;5056398;28;20554;-58
2024/03/09 14:09:10;;;;;;;5.05;3.88;;;;;;;;;;5057170;28;20037;-58
2024/03/09 14:11:38;;;;;;;7.50;3.88;;;;;;;;;;5057167;28;20029;-58
2024/03/09 14:14:08;;;;;;;6.68;4.65;;;;;;;;;;5057478;28;20029;-58
2024/03/09 14:16:35;;;;;;;5.57;3.70;;;;;;;;;;5056948;28;20455;-57
2024/03/09 14:19:05;;;;;;;4.40;3.20;;;;;;;;;;5056870;28;20037;-57
2024/03/09 14:21:31;;;;;;;5.15;3.85;;;;;;;;;;5056229;28;20087;-58
2024/03/09 14:23:57;;;;;;;5.10;3.78;;;;;;;;;;5056325;28;20021;-57
2024/03/09 14:26:28;;;;;;;5.13;3.60;;;;;;;;;;5056497;28;20059;-58
2024/03/09 14:28:54;;;;;;;;;;;;;;;;;;5056741;28;20039;-58